Time;durP1;ratioP1;P1;durP2;ratioP2;P2;SDS_P1;SDS_P2;PMS_P1;PMS_P2;Temp;Humidity;BMP_temperature;BMP_pressure;BME280_temperature;BME280_humidity;BME280_pressure;Samples;Min_cycle;Max_cycle;Signal;HPM_P1;HPM_P2
2022/08/06 00:00:24;;;;;;;2.15;0.95;;;15.30;81.10;;;;;;4993664;28;20555;-51
2022/08/06 00:02:49;;;;;;;4.60;1.38;;;15.30;79.80;;;;;;4993428;28;20030;-52
2022/08/06 00:05:15;;;;;;;2.13;1.00;;;15.30;79.90;;;;;;4993434;28;20097;-53
2022/08/06 00:07:41;;;;;;;2.90;0.85;;;15.30;80.30;;;;;;4993000;28;20026;-49
2022/08/06 00:10:07;;;;;;;3.50;1.02;;;15.20;80.50;;;;;;4992556;28;20084;-49
2022/08/06 00:12:33;;;;;;;2.92;0.82;;;15.30;80.10;;;;;;4993441;28;20033;-52
2022/08/06 00:15:00;;;;;;;2.03;0.90;;;15.20;81.30;;;;;;4993088;28;20030;-48
2022/08/06 00:17:25;;;;;;;3.78;1.00;;;15.20;79.20;;;;;;4993107;28;20022;-49
2022/08/06 00:19:51;;;;;;;3.38;1.13;;;15.20;79.10;;;;;;4993028;28;20038;-54
2022/08/06 00:22:17;;;;;;;2.08;1.15;;;15.10;82.90;;;;;;4993206;28;20057;-53
2022/08/06 00:24:42;;;;;;;6.00;1.10;;;15.10;82.00;;;;;;4993015;28;20026;-47
2022/08/06 00:27:08;;;;;;;3.85;1.13;;;15.10;81.10;;;;;;4992720;28;20042;-44
2022/08/06 00:29:34;;;;;;;3.00;1.00;;;15.00;81.80;;;;;;4992966;28;20027;-46
2022/08/06 00:31:59;;;;;;;2.78;1.35;;;15.00;82.30;;;;;;4992717;28;20552;-48
2022/08/06 00:34:25;;;;;;;3.80;1.42;;;15.00;83.70;;;;;;4992970;28;20033;-46
2022/08/06 00:36:51;;;;;;;3.25;1.17;;;15.00;83.90;;;;;;4992511;28;20034;-46
2022/08/06 00:39:16;;;;;;;2.30;1.30;;;15.00;84.10;;;;;;4992363;28;20034;-43
2022/08/06 00:41:43;;;;;;;3.75;1.35;;;15.00;84.20;;;;;;4992820;28;20037;-47
2022/08/06 00:44:09;;;;;;;3.00;1.20;;;15.00;84.20;;;;;;4992471;28;20379;-47
2022/08/06 00:46:35;;;;;;;3.55;1.50;;;15.00;84.00;;;;;;4992279;28;20030;-51
2022/08/06 00:49:00;;;;;;;3.15;1.50;;;15.00;85.90;;;;;;4992825;28;20049;-50
2022/08/06 00:51:26;;;;;;;3.30;1.50;;;15.00;84.90;;;;;;4992242;28;20559;-54
2022/08/06 00:53:52;;;;;;;4.28;1.38;;;15.00;85.70;;;;;;4992479;28;20030;-46
2022/08/06 00:56:19;;;;;;;3.15;1.25;;;14.90;85.80;;;;;;4992100;28;20466;-54
2022/08/06 00:58:44;;;;;;;2.30;1.23;;;14.90;85.70;;;;;;4974932;28;20038;-52
2022/08/06 01:01:11;;;;;;;2.47;1.20;;;14.80;84.40;;;;;;4992283;28;20118;-49
2022/08/06 01:03:37;;;;;;;1.90;1.08;;;14.90;86.50;;;;;;4992401;28;20030;-50
2022/08/06 01:06:03;;;;;;;2.80;1.33;;;14.90;85.70;;;;;;4992098;28;20091;-47
2022/08/06 01:08:29;;;;;;;4.13;1.38;;;14.90;87.10;;;;;;4992137;28;20120;-50
2022/08/06 01:10:55;;;;;;;3.33;1.08;;;14.80;86.50;;;;;;4992184;28;20110;-52
2022/08/06 01:13:20;;;;;;;3.67;1.20;;;14.90;86.10;;;;;;4992118;28;20065;-52
2022/08/06 01:15:52;;;;;;;2.13;1.10;;;14.90;88.30;;;;;;4971342;28;20034;-50
2022/08/06 01:18:28;;;;;;;1.73;1.20;;;14.80;88.60;;;;;;4986125;28;20109;-51
2022/08/06 01:21:13;;;;;;;2.08;1.20;;;14.80;88.30;;;;;;4991096;28;20116;-50
2022/08/06 01:24:19;;;;;;;2.53;1.17;;;14.80;87.70;;;;;;4991759;28;20033;-52
2022/08/06 01:27:13;;;;;;;2.88;1.13;;;14.90;88.80;;;;;;4977180;28;20034;-54
2022/08/06 01:29:43;;;;;;;3.13;1.10;;;14.80;86.70;;;;;;4991988;28;20102;-55
2022/08/06 01:32:14;;;;;;;1.75;1.00;;;14.90;88.10;;;;;;4974308;28;20050;-51
2022/08/06 01:34:50;;;;;;;1.65;0.98;;;14.90;87.70;;;;;;4991821;28;20030;-52
2022/08/06 01:37:35;;;;;;;3.80;1.20;;;14.90;87.20;;;;;;4991893;28;20042;-58
2022/08/06 01:40:06;;;;;;;4.28;1.20;;;14.80;88.20;;;;;;4991722;28;20524;-54
2022/08/06 01:42:33;;;;;;;2.90;1.20;;;14.80;90.10;;;;;;4991696;28;20026;-55
2022/08/06 01:45:01;;;;;;;2.53;1.00;;;14.80;89.80;;;;;;4991720;28;20089;-46
2022/08/06 01:47:29;;;;;;;3.67;1.20;;;14.70;88.80;;;;;;4991817;28;20031;-54
2022/08/06 01:49:59;;;;;;;3.63;1.00;;;14.70;89.90;;;;;;4991778;28;20037;-47
2022/08/06 01:52:26;;;;;;;2.83;1.10;;;14.70;88.30;;;;;;4991651;28;20014;-52
2022/08/06 01:54:54;;;;;;;2.90;1.30;;;14.70;89.70;;;;;;4991551;28;20022;-55
2022/08/06 01:57:23;;;;;;;2.50;1.20;;;14.70;90.30;;;;;;4991446;28;20474;-53
2022/08/06 01:59:51;;;;;;;2.90;1.00;;;14.70;90.10;;;;;;4991891;28;20026;-46
2022/08/06 02:02:22;;;;;;;3.03;1.20;;;14.60;89.30;;;;;;4991597;28;20564;-49
2022/08/06 02:04:51;;;;;;;1.52;1.08;;;14.60;90.20;;;;;;4991487;28;20034;-42
2022/08/06 02:07:22;;;;;;;1.92;1.00;;;14.60;90.40;;;;;;4988285;28;20039;-43
2022/08/06 02:09:50;;;;;;;1.88;1.08;;;14.60;90.90;;;;;;4991595;28;20069;-43
2022/08/06 02:12:19;;;;;;;3.00;1.00;;;14.50;90.30;;;;;;4991394;28;20022;-43
2022/08/06 02:14:57;;;;;;;2.25;1.08;;;14.50;90.70;;;;;;4991628;28;20026;-52
2022/08/06 02:17:28;;;;;;;2.92;1.30;;;14.50;90.70;;;;;;4991167;28;20031;-45
2022/08/06 02:19:55;;;;;;;6.45;1.10;;;14.50;91.30;;;;;;4991460;28;20089;-47
2022/08/06 02:22:22;;;;;;;1.75;0.95;;;14.40;90.60;;;;;;4991270;28;20077;-49
2022/08/06 02:24:49;;;;;;;1.45;0.90;;;14.40;90.90;;;;;;4991459;28;20019;-43
2022/08/06 02:27:17;;;;;;;2.45;1.15;;;14.40;91.60;;;;;;4991226;28;20053;-45
2022/08/06 02:29:45;;;;;;;2.55;1.23;;;14.40;91.50;;;;;;4991077;28;20544;-47
2022/08/06 02:32:13;;;;;;;2.05;1.10;;;14.40;91.60;;;;;;4989665;28;20042;-49
2022/08/06 02:34:38;;;;;;;4.20;1.15;;;14.30;91.90;;;;;;4995002;28;20019;-48
2022/08/06 02:37:17;;;;;;;2.28;1.15;;;14.30;91.40;;;;;;4994867;28;20045;-46
2022/08/06 02:39:52;;;;;;;3.53;0.90;;;14.30;91.70;;;;;;4995148;28;20043;-46
2022/08/06 02:42:46;;;;;;;2.67;0.90;;;14.30;91.70;;;;;;4995000;28;20466;-47
2022/08/06 02:45:24;;;;;;;4.05;1.75;;;14.30;91.80;;;;;;4990859;28;20045;-49
2022/08/06 02:48:07;;;;;;;1.88;0.98;;;14.20;91.70;;;;;;4994907;28;20039;-45
2022/08/06 02:50:44;;;;;;;2.08;0.95;;;14.30;92.10;;;;;;4994926;28;20038;-46
2022/08/06 02:53:15;;;;;;;5.93;1.25;;;14.20;92.20;;;;;;4994453;28;20456;-47
2022/08/06 02:55:48;;;;;;;2.28;1.10;;;14.20;92.50;;;;;;4994681;28;20077;-48
2022/08/06 02:58:16;;;;;;;1.98;1.00;;;14.20;92.20;;;;;;4994578;28;20026;-45
2022/08/06 03:00:45;;;;;;;2.45;1.52;;;14.10;92.20;;;;;;4994686;28;20484;-49
2022/08/06 03:03:13;;;;;;;3.58;1.30;;;14.10;92.50;;;;;;4994693;28;20034;-51
2022/08/06 03:05:42;;;;;;;3.33;1.48;;;14.10;92.30;;;;;;4994661;28;20033;-51
2022/08/06 03:08:10;;;;;;;4.03;1.60;;;14.10;92.60;;;;;;4993887;28;20421;-48
2022/08/06 03:10:36;;;;;;;2.92;1.27;;;14.10;92.10;;;;;;4994161;28;20540;-52
2022/08/06 03:13:05;;;;;;;5.68;1.63;;;14.00;92.80;;;;;;4994457;28;20069;-50
2022/08/06 03:15:33;;;;;;;3.57;1.73;;;14.00;92.60;;;;;;4994328;28;20015;-46
2022/08/06 03:18:00;;;;;;;3.63;1.75;;;14.00;93.10;;;;;;4994421;28;20267;-53
2022/08/06 03:20:28;;;;;;;3.42;1.63;;;14.00;93.40;;;;;;4994253;28;20157;-46
2022/08/06 03:22:59;;;;;;;4.10;2.03;;;14.00;92.70;;;;;;4994293;28;20022;-45
2022/08/06 03:25:27;;;;;;;2.88;1.95;;;14.00;93.10;;;;;;4994325;28;20025;-46
2022/08/06 03:27:53;;;;;;;6.40;2.00;;;14.00;93.00;;;;;;4993833;28;20068;-43
2022/08/06 03:30:20;;;;;;;5.18;1.80;;;14.00;93.20;;;;;;4994244;28;20029;-45
2022/08/06 03:32:47;;;;;;;4.07;2.00;;;14.00;93.00;;;;;;4992747;28;20058;-44
2022/08/06 03:35:14;;;;;;;5.20;2.50;;;13.90;92.80;;;;;;4994046;28;20469;-48
2022/08/06 03:37:42;;;;;;;4.88;2.20;;;13.90;92.90;;;;;;4994246;28;20054;-48
2022/08/06 03:40:09;;;;;;;5.18;2.38;;;14.00;93.00;;;;;;4994052;28;20105;-49
2022/08/06 03:42:35;;;;;;;4.50;2.13;;;14.00;92.90;;;;;;4993969;28;20096;-50
2022/08/06 03:45:00;;;;;;;4.43;2.08;;;14.00;92.70;;;;;;4992937;28;20493;-46
2022/08/06 03:47:32;;;;;;;5.45;2.25;;;14.00;93.40;;;;;;4992259;28;20121;-47
2022/08/06 03:50:34;;;;;;;4.18;2.08;;;14.00;92.80;;;;;;4994048;28;20058;-48
2022/08/06 03:53:03;;;;;;;3.83;2.30;;;14.00;93.30;;;;;;4983749;28;20034;-48
2022/08/06 03:55:31;;;;;;;5.00;2.17;;;14.00;93.30;;;;;;4993682;28;20429;-44
2022/08/06 03:58:01;;;;;;;4.85;2.38;;;14.00;92.90;;;;;;4993672;28;20026;-49
2022/08/06 04:00:32;;;;;;;4.80;2.13;;;13.90;93.10;;;;;;4993501;28;20034;-47
2022/08/06 04:02:58;;;;;;;4.60;2.47;;;13.90;93.30;;;;;;4993735;28;20066;-46
2022/08/06 04:05:27;;;;;;;3.47;2.10;;;13.90;93.80;;;;;;4993516;28;20080;-44
2022/08/06 04:07:59;;;;;;;5.15;2.28;;;13.90;92.90;;;;;;4992441;28;20081;-45
2022/08/06 04:10:29;;;;;;;4.40;2.40;;;13.80;93.20;;;;;;4992801;28;20062;-47
2022/08/06 04:12:55;;;;;;;6.03;2.45;;;13.80;93.70;;;;;;4993205;28;20584;-43
2022/08/06 04:15:22;;;;;;;5.20;2.85;;;13.80;93.50;;;;;;4993318;28;20121;-43
2022/08/06 04:17:49;;;;;;;5.50;2.28;;;13.80;94.00;;;;;;4993390;28;20413;-43
2022/08/06 04:20:20;;;;;;;5.47;3.03;;;13.70;93.40;;;;;;4987868;28;20072;-47
2022/08/06 04:22:45;;;;;;;5.28;2.63;;;13.80;94.40;;;;;;4993175;28;20401;-46
2022/08/06 04:25:12;;;;;;;4.68;2.45;;;13.70;93.80;;;;;;4993001;28;20469;-44
2022/08/06 04:27:39;;;;;;;4.13;2.63;;;13.70;94.20;;;;;;4992838;28;20030;-44
2022/08/06 04:30:06;;;;;;;5.65;2.97;;;13.70;94.00;;;;;;4993242;28;20058;-45
2022/08/06 04:32:32;;;;;;;4.18;2.67;;;13.70;93.90;;;;;;4992987;28;20057;-45
2022/08/06 04:35:03;;;;;;;4.88;3.05;;;13.70;94.30;;;;;;4992762;28;20069;-48
2022/08/06 04:37:29;;;;;;;5.97;2.70;;;13.70;94.10;;;;;;4992802;28;20038;-43
2022/08/06 04:39:55;;;;;;;5.35;2.95;;;13.60;94.00;;;;;;4992719;28;20023;-48
2022/08/06 04:42:21;;;;;;;5.47;2.85;;;13.60;94.10;;;;;;4992950;28;20026;-50
2022/08/06 04:44:47;;;;;;;5.10;2.70;;;13.60;94.50;;;;;;4992618;28;20029;-43
2022/08/06 04:47:14;;;;;;;5.97;2.97;;;13.60;94.80;;;;;;4992759;28;20060;-52
2022/08/06 04:49:40;;;;;;;4.78;2.70;;;13.60;94.70;;;;;;4992410;28;20045;-47
2022/08/06 04:52:05;;;;;;;5.82;2.60;;;13.60;94.60;;;;;;4992633;28;20027;-44
2022/08/06 04:54:31;;;;;;;5.85;2.88;;;13.60;94.70;;;;;;4992502;28;20441;-47
2022/08/06 04:56:57;;;;;;;4.88;2.58;;;13.60;95.00;;;;;;4992599;28;20026;-44
2022/08/06 04:59:22;;;;;;;5.70;3.17;;;13.60;95.10;;;;;;4992389;28;20033;-44
2022/08/06 05:01:48;;;;;;;5.75;3.00;;;13.60;94.80;;;;;;4991834;28;20030;-44
2022/08/06 05:04:14;;;;;;;6.65;3.47;;;13.60;94.70;;;;;;4992142;28;20371;-43
2022/08/06 05:07:05;;;;;;;5.05;3.00;;;13.60;94.50;;;;;;4992163;28;20078;-49
2022/08/06 05:09:31;;;;;;;5.68;2.90;;;13.60;94.90;;;;;;4962094;28;20049;-53
2022/08/06 05:12:02;;;;;;;7.00;2.92;;;13.60;95.00;;;;;;4992128;28;20027;-52
2022/08/06 05:14:42;;;;;;;5.10;3.00;;;13.70;95.70;;;;;;4992374;28;20117;-44
2022/08/06 05:17:09;;;;;;;;;;;13.70;95.70;;;;;;4992449;28;20034;-46
2022/08/06 05:19:41;;;;;;;5.28;3.20;;;13.80;95.00;;;;;;4992167;28;19906;-47
2022/08/06 05:22:10;;;;;;;6.10;3.45;;;13.80;96.00;;;;;;4992044;28;20482;-50
2022/08/06 05:24:36;;;;;;;7.32;3.10;;;13.90;95.20;;;;;;4992202;28;20038;-43
2022/08/06 05:27:03;;;;;;;6.13;3.30;;;14.00;95.60;;;;;;4991886;28;20094;-52
2022/08/06 05:29:29;;;;;;;5.55;3.40;;;14.00;94.80;;;;;;4991860;28;20036;-48
2022/08/06 05:31:59;;;;;;;9.65;3.65;;;14.10;95.30;;;;;;4991584;28;20046;-44
2022/08/06 05:34:25;;;;;;;6.45;3.50;;;14.10;94.70;;;;;;4991968;28;20061;-46
2022/08/06 05:36:50;;;;;;;4.95;3.30;;;14.20;94.00;;;;;;4991971;28;20485;-49
2022/08/06 05:39:16;;;;;;;9.82;4.13;;;14.20;94.80;;;;;;4991925;28;20052;-45
2022/08/06 05:41:42;;;;;;;6.88;3.75;;;14.30;94.70;;;;;;4990593;28;20022;-44
2022/08/06 05:44:08;;;;;;;6.72;3.75;;;14.40;94.40;;;;;;4991712;28;20117;-55
2022/08/06 05:46:51;;;;;;;6.93;3.88;;;14.50;94.20;;;;;;4991530;28;20105;-56
2022/08/06 05:49:21;;;;;;;7.50;3.80;;;14.50;94.50;;;;;;4991969;28;20045;-52
2022/08/06 05:52:04;;;;;;;7.07;3.95;;;14.60;93.40;;;;;;4991718;28;20077;-49
2022/08/06 05:54:53;;;;;;;7.50;4.15;;;14.70;93.40;;;;;;4991621;28;20030;-54
2022/08/06 05:57:39;;;;;;;;;;;14.80;93.80;;;;;;4992206;28;20555;-44
2022/08/06 06:00:10;;;;;;;8.40;4.35;;;15.10;94.10;;;;;;4990760;28;19917;-47
2022/08/06 06:02:42;;;;;;;5.85;3.40;;;16.10;92.50;;;;;;4977957;28;20034;-47
2022/08/06 06:05:10;;;;;;;6.30;3.80;;;17.30;90.70;;;;;;4987805;28;20128;-46
2022/08/06 06:07:36;;;;;;;8.48;3.50;;;18.50;87.50;;;;;;4993064;28;20026;-46
2022/08/06 06:10:05;;;;;;;8.32;4.15;;;19.60;84.90;;;;;;4995266;28;20038;-47
2022/08/06 06:12:32;;;;;;;6.07;3.50;;;20.60;80.70;;;;;;4994111;28;20026;-50
2022/08/06 06:14:58;;;;;;;5.43;3.92;;;21.20;77.30;;;;;;4992703;28;20027;-50
2022/08/06 06:17:41;;;;;;;5.78;3.55;;;21.90;73.40;;;;;;4990138;28;20019;-50
2022/08/06 06:20:16;;;;;;;6.43;3.95;;;22.30;72.20;;;;;;4994220;28;20040;-53
2022/08/06 06:23:11;;;;;;;7.30;3.92;;;22.30;70.50;;;;;;4993599;28;20029;-46
2022/08/06 06:25:46;;;;;;;5.68;3.83;;;22.90;69.20;;;;;;4994739;28;20026;-50
2022/08/06 06:28:24;;;;;;;7.50;4.22;;;23.60;66.00;;;;;;4994626;28;20038;-46
2022/08/06 06:30:55;;;;;;;5.68;4.30;;;24.20;63.60;;;;;;4993622;28;20080;-49
2022/08/06 06:33:31;;;;;;;6.88;4.50;;;24.90;61.80;;;;;;4994004;28;20057;-46
2022/08/06 06:35:59;;;;;;;7.10;4.32;;;24.70;58.30;;;;;;4994265;28;20060;-48
2022/08/06 06:38:57;;;;;;;6.85;4.25;;;25.00;58.40;;;;;;4994216;28;20509;-44
2022/08/06 06:41:51;;;;;;;10.40;5.72;;;25.30;57.60;;;;;;4993410;28;20038;-49
2022/08/06 06:44:28;;;;;;;6.88;5.00;;;25.70;56.40;;;;;;4989991;28;20169;-53
2022/08/06 06:47:04;;;;;;;7.78;4.90;;;25.90;53.20;;;;;;4994707;28;20052;-49
2022/08/06 06:49:44;;;;;;;7.30;5.15;;;26.00;52.80;;;;;;4994867;28;20034;-44
2022/08/06 06:52:38;;;;;;;8.57;5.55;;;25.70;51.90;;;;;;4994514;28;20092;-46
2022/08/06 06:55:24;;;;;;;7.97;5.68;;;26.40;52.40;;;;;;4990493;28;20034;-47
2022/08/06 06:58:18;;;;;;;8.25;6.13;;;26.60;51.20;;;;;;4994403;28;20070;-44
2022/08/06 07:00:45;;;;;;;7.70;5.57;;;26.50;51.10;;;;;;4990958;28;20046;-49
2022/08/06 07:03:12;;;;;;;10.60;6.18;;;27.40;50.90;;;;;;4994533;28;20389;-47
2022/08/06 07:05:43;;;;;;;8.20;5.75;;;27.60;47.60;;;;;;4994098;28;20034;-43
2022/08/06 07:08:11;;;;;;;9.13;6.22;;;27.90;48.30;;;;;;4994043;28;20532;-50
2022/08/06 07:10:39;;;;;;;6.90;6.07;;;27.80;46.90;;;;;;4994070;28;20035;-49
2022/08/06 07:13:06;;;;;;;;;;;27.50;48.10;;;;;;4987248;28;20039;-44
2022/08/06 07:15:33;;;;;;;10.07;7.55;;;27.60;47.10;;;;;;4994166;28;19909;-48
2022/08/06 07:17:59;;;;;;;9.50;6.65;;;27.90;46.40;;;;;;4994036;28;20022;-49
2022/08/06 07:20:30;;;;;;;11.00;6.95;;;27.80;46.60;;;;;;4989715;28;20034;-49
2022/08/06 07:23:00;;;;;;;9.15;6.70;;;28.00;46.60;;;;;;4993285;28;20022;-49
2022/08/06 07:25:27;;;;;;;9.45;6.53;;;29.10;45.30;;;;;;4976221;28;20504;-49
2022/08/06 07:27:53;;;;;;;9.27;6.60;;;29.10;45.10;;;;;;4993579;28;20503;-49
2022/08/06 07:30:20;;;;;;;7.72;6.43;;;29.80;43.70;;;;;;4992914;28;20161;-47
2022/08/06 07:32:47;;;;;;;8.85;6.72;;;30.00;43.30;;;;;;4994113;28;20069;-46
2022/08/06 07:35:15;;;;;;;8.85;6.25;;;29.80;43.10;;;;;;4994200;28;20030;-55
2022/08/06 07:37:52;;;;;;;8.23;6.37;;;30.50;42.60;;;;;;4993587;28;20033;-45
2022/08/06 07:40:27;;;;;;;8.77;6.50;;;30.60;40.80;;;;;;4991350;28;20401;-45
2022/08/06 07:42:59;;;;;;;8.55;6.65;;;30.50;41.30;;;;;;4989651;28;20026;-44
2022/08/06 07:45:28;;;;;;;8.43;6.63;;;30.40;40.80;;;;;;4990252;28;20037;-43
2022/08/06 07:47:57;;;;;;;8.98;6.30;;;30.60;39.80;;;;;;4989870;28;20677;-44
2022/08/06 07:50:26;;;;;;;9.75;6.13;;;31.20;41.10;;;;;;4990262;28;20038;-45
2022/08/06 07:52:54;;;;;;;9.93;6.45;;;31.30;40.30;;;;;;4990080;28;20023;-43
2022/08/06 07:55:21;;;;;;;7.60;6.38;;;31.80;40.60;;;;;;4991384;28;20054;-43
2022/08/06 07:57:48;;;;;;;8.52;6.22;;;32.00;39.40;;;;;;4993593;28;20026;-52
2022/08/06 08:00:14;;;;;;;9.45;6.97;;;31.80;38.70;;;;;;4993384;28;20061;-47
2022/08/06 08:02:40;;;;;;;8.55;6.50;;;32.00;37.70;;;;;;4993451;28;20026;-43
2022/08/06 08:07:51;;;;;;;7.93;6.10;;;31.80;38.40;;;;;;4993555;28;20077;-44
2022/08/06 08:10:18;;;;;;;7.05;5.60;;;32.00;38.00;;;;;;4993217;28;20070;-48
2022/08/06 08:12:44;;;;;;;7.72;6.20;;;32.10;38.20;;;;;;4993504;28;20018;-46
2022/08/06 08:15:10;;;;;;;8.95;5.82;;;32.30;37.70;;;;;;4993158;28;20437;-46
2022/08/06 08:17:36;;;;;;;7.47;5.40;;;32.40;38.10;;;;;;4993317;28;20019;-50
2022/08/06 08:20:05;;;;;;;6.95;5.40;;;32.40;37.20;;;;;;4993191;28;20116;-44
2022/08/06 08:22:30;;;;;;;8.07;5.63;;;32.60;37.50;;;;;;4992902;28;20405;-46
2022/08/06 08:24:56;;;;;;;7.10;4.90;;;32.40;37.40;;;;;;4992970;28;20053;-50
2022/08/06 08:27:22;;;;;;;9.32;5.18;;;32.00;36.30;;;;;;4992687;28;20033;-47
2022/08/06 08:29:48;;;;;;;9.07;4.85;;;32.30;37.50;;;;;;4992225;28;20533;-50
2022/08/06 08:32:13;;;;;;;6.82;5.05;;;32.70;35.90;;;;;;4993058;28;20505;-45
2022/08/06 08:34:39;;;;;;;8.25;5.20;;;32.50;35.60;;;;;;4992809;28;20030;-47
2022/08/06 08:37:05;;;;;;;9.10;5.47;;;32.70;36.90;;;;;;4993069;28;20417;-48
2022/08/06 08:39:30;;;;;;;8.65;5.03;;;32.70;36.20;;;;;;4992670;28;20077;-45
2022/08/06 08:42:19;;;;;;;6.65;4.78;;;32.50;36.60;;;;;;4992903;28;20034;-45
2022/08/06 08:44:47;;;;;;;9.02;4.97;;;32.70;37.00;;;;;;4992858;28;20018;-47
2022/08/06 08:47:14;;;;;;;8.20;4.57;;;32.80;37.90;;;;;;4992623;28;20385;-48
2022/08/06 08:49:44;;;;;;;7.00;4.78;;;32.90;36.10;;;;;;4992468;28;20038;-49
2022/08/06 08:52:16;;;;;;;8.55;5.57;;;33.20;35.50;;;;;;4992836;28;20034;-51
2022/08/06 08:54:46;;;;;;;6.88;4.88;;;33.50;34.70;;;;;;4992470;28;20038;-47
2022/08/06 08:57:13;;;;;;;6.70;5.13;;;32.80;34.40;;;;;;4992598;28;20089;-51
2022/08/06 08:59:41;;;;;;;6.82;4.72;;;33.00;36.00;;;;;;4992183;28;20478;-48
2022/08/06 09:02:09;;;;;;;6.32;5.07;;;33.10;35.50;;;;;;4992364;28;20035;-46
2022/08/06 09:04:35;;;;;;;;;;;33.10;36.50;;;;;;4992836;28;20105;-44
2022/08/06 09:07:02;;;;;;;6.93;5.25;;;32.90;35.50;;;;;;4992215;28;20032;-53
2022/08/06 09:09:30;;;;;;;6.72;4.55;;;32.90;36.50;;;;;;4992416;28;20040;-49
2022/08/06 09:11:57;;;;;;;7.20;4.28;;;33.10;36.00;;;;;;4992346;28;20034;-51
2022/08/06 09:14:23;;;;;;;9.23;4.88;;;33.20;34.80;;;;;;4992376;28;20033;-52
2022/08/06 09:16:49;;;;;;;10.05;4.80;;;33.00;35.00;;;;;;4991985;28;20106;-46
2022/08/06 09:19:15;;;;;;;7.45;5.40;;;33.00;35.80;;;;;;4992234;28;20032;-51
2022/08/06 09:21:42;;;;;;;6.90;4.57;;;33.10;35.80;;;;;;4992144;28;20030;-46
2022/08/06 09:24:08;;;;;;;7.57;4.68;;;32.90;35.90;;;;;;4991893;28;20029;-49
2022/08/06 09:26:34;;;;;;;7.35;4.55;;;32.60;35.10;;;;;;4991812;28;20041;-55
2022/08/06 09:29:00;;;;;;;6.60;4.38;;;32.10;36.80;;;;;;4991723;28;20105;-45
2022/08/06 09:31:26;;;;;;;7.72;4.45;;;32.10;35.10;;;;;;4991205;28;20086;-52
2022/08/06 09:34:04;;;;;;;6.20;4.47;;;32.10;37.50;;;;;;4992007;28;20026;-53
2022/08/06 09:36:41;;;;;;;6.50;4.25;;;32.20;35.30;;;;;;4991879;28;20089;-47
2022/08/06 09:39:07;;;;;;;7.27;4.30;;;32.20;36.60;;;;;;4991966;28;20080;-45
2022/08/06 09:41:34;;;;;;;6.43;4.10;;;32.40;35.90;;;;;;4991278;28;20481;-45
2022/08/06 09:44:10;;;;;;;8.40;4.20;;;32.10;35.80;;;;;;4991722;28;20049;-49
2022/08/06 09:46:47;;;;;;;6.57;4.03;;;32.10;36.60;;;;;;4991684;28;20058;-55
2022/08/06 09:49:15;;;;;;;8.02;3.63;;;32.10;35.30;;;;;;4991832;28;20066;-49
2022/08/06 09:51:41;;;;;;;5.73;3.97;;;31.30;36.20;;;;;;4991699;28;20032;-48
2022/08/06 09:54:15;;;;;;;5.93;3.75;;;30.90;35.70;;;;;;4991833;28;20101;-51
2022/08/06 09:56:42;;;;;;;6.82;4.25;;;30.50;36.50;;;;;;4991466;28;20381;-44
2022/08/06 09:59:10;;;;;;;7.18;3.88;;;30.70;38.80;;;;;;4991404;28;20390;-48
2022/08/06 10:01:40;;;;;;;4.97;3.80;;;31.30;38.50;;;;;;4991354;28;20034;-45
2022/08/06 10:04:06;;;;;;;4.88;3.53;;;31.50;36.70;;;;;;4991542;28;20046;-44
2022/08/06 10:06:32;;;;;;;6.57;3.55;;;31.00;35.20;;;;;;4991693;28;20076;-47
2022/08/06 10:09:09;;;;;;;6.00;3.88;;;30.80;37.90;;;;;;4991282;28;20401;-47
2022/08/06 10:11:37;;;;;;;5.90;3.40;;;30.90;37.20;;;;;;4991389;28;20556;-48
2022/08/06 10:14:04;;;;;;;5.40;3.25;;;30.90;36.30;;;;;;4991354;28;20493;-48
2022/08/06 10:16:30;;;;;;;5.28;3.22;;;30.80;35.30;;;;;;4991575;28;20038;-50
2022/08/06 10:18:57;;;;;;;6.80;3.40;;;30.60;35.80;;;;;;4991430;28;20026;-50
2022/08/06 10:21:25;;;;;;;4.60;3.08;;;30.00;37.50;;;;;;4991416;28;20545;-44
2022/08/06 10:23:54;;;;;;;6.28;3.55;;;30.10;38.20;;;;;;4991561;28;20050;-44
2022/08/06 10:26:41;;;;;;;4.45;3.00;;;30.30;38.70;;;;;;4991246;28;20029;-54
2022/08/06 10:29:07;;;;;;;6.15;3.50;;;31.10;38.00;;;;;;4991300;28;20039;-44
2022/08/06 10:31:35;;;;;;;4.72;3.10;;;31.60;37.10;;;;;;4991124;28;20046;-44
2022/08/06 10:34:09;;;;;;;6.72;3.00;;;31.70;35.50;;;;;;4991625;28;20109;-44
2022/08/06 10:36:36;;;;;;;4.85;3.03;;;31.50;35.40;;;;;;4991156;28;20421;-49
2022/08/06 10:39:03;;;;;;;4.80;2.80;;;31.20;34.20;;;;;;4991317;28;20029;-55
2022/08/06 10:41:30;;;;;;;5.95;3.20;;;30.30;36.40;;;;;;4985812;28;20517;-45
2022/08/06 10:43:57;;;;;;;10.85;3.70;;;29.50;36.90;;;;;;4980154;28;20521;-46
2022/08/06 10:46:23;;;;;;;7.05;3.17;;;28.50;39.20;;;;;;4984535;28;20414;-48
2022/08/06 10:48:50;;;;;;;4.55;2.67;;;28.60;39.90;;;;;;4989751;28;20124;-50
2022/08/06 10:51:16;;;;;;;5.72;3.25;;;29.20;38.00;;;;;;4989929;28;20370;-54
2022/08/06 10:53:44;;;;;;;9.00;3.75;;;29.70;37.80;;;;;;4990645;28;20050;-48
2022/08/06 10:56:13;;;;;;;5.15;3.13;;;30.00;36.90;;;;;;4992887;28;20042;-54
2022/08/06 10:58:40;;;;;;;4.90;3.42;;;29.80;37.10;;;;;;4992914;28;20041;-47
2022/08/06 11:01:17;;;;;;;4.95;3.25;;;30.00;37.80;;;;;;4993258;28;20050;-44
2022/08/06 11:03:57;;;;;;;5.38;3.20;;;30.50;39.30;;;;;;4994606;28;20033;-47
2022/08/06 11:06:41;;;;;;;4.70;3.03;;;31.00;36.60;;;;;;4973959;28;20037;-46
2022/08/06 11:09:26;;;;;;;5.68;3.20;;;31.20;35.30;;;;;;4991451;28;20489;-45
2022/08/06 11:12:18;;;;;;;5.78;3.40;;;31.10;35.10;;;;;;4991099;28;20077;-45
2022/08/06 11:14:44;;;;;;;7.13;3.47;;;30.90;36.10;;;;;;4991112;28;20069;-48
2022/08/06 11:17:11;;;;;;;3.80;2.70;;;31.00;35.90;;;;;;4991312;28;20038;-50
2022/08/06 11:19:46;;;;;;;8.32;3.38;;;31.00;35.00;;;;;;4992104;28;20023;-51
2022/08/06 11:22:34;;;;;;;7.32;3.30;;;31.00;36.50;;;;;;4991840;28;20094;-48
2022/08/06 11:25:00;;;;;;;6.90;3.47;;;31.00;35.60;;;;;;4992590;28;20398;-53
2022/08/06 11:27:49;;;;;;;6.75;3.50;;;30.80;34.90;;;;;;4991514;28;20034;-45
2022/08/06 11:30:16;;;;;;;5.30;3.30;;;30.40;35.70;;;;;;4983840;28;20026;-50
2022/08/06 11:32:50;;;;;;;6.38;3.25;;;30.50;35.30;;;;;;4987101;28;20046;-49
2022/08/06 11:35:34;;;;;;;5.63;3.45;;;30.50;35.50;;;;;;4991860;28;20030;-47
2022/08/06 11:38:06;;;;;;;7.50;3.50;;;30.10;35.70;;;;;;4990359;28;20022;-48
2022/08/06 11:40:56;;;;;;;5.50;3.35;;;29.50;35.80;;;;;;4986379;28;20026;-46
2022/08/06 11:43:40;;;;;;;5.65;3.63;;;29.40;37.10;;;;;;4982121;28;20363;-54
2022/08/06 11:46:26;;;;;;;5.90;3.60;;;29.30;35.60;;;;;;4980267;28;20073;-49
2022/08/06 11:48:58;;;;;;;6.28;3.70;;;29.30;37.90;;;;;;4978357;28;20560;-45
2022/08/06 11:51:47;;;;;;;5.78;3.40;;;29.50;37.50;;;;;;4977272;28;20034;-44
2022/08/06 11:54:18;;;;;;;6.30;4.00;;;29.80;37.60;;;;;;4975879;28;20023;-47
2022/08/06 11:57:02;;;;;;;6.20;3.80;;;29.70;35.80;;;;;;4988862;28;20022;-51
2022/08/06 11:59:37;;;;;;;5.68;3.40;;;29.90;37.30;;;;;;4990898;28;20485;-51
2022/08/06 12:02:06;;;;;;;6.72;3.80;;;30.30;37.10;;;;;;4990716;28;20042;-45
2022/08/06 12:04:38;;;;;;;5.82;3.53;;;30.40;36.30;;;;;;4990244;28;20046;-50
2022/08/06 12:07:20;;;;;;;5.63;3.50;;;30.20;34.40;;;;;;4990472;28;20045;-49
2022/08/06 12:09:59;;;;;;;4.78;3.30;;;30.20;35.50;;;;;;4988419;28;20034;-48
2022/08/06 12:12:24;;;;;;;4.88;3.45;;;29.50;35.50;;;;;;4987611;28;20038;-51
2022/08/06 12:14:51;;;;;;;5.20;3.40;;;29.90;36.40;;;;;;4986982;28;20026;-51
2022/08/06 12:17:19;;;;;;;5.20;3.28;;;30.20;36.40;;;;;;4989766;28;20045;-45
2022/08/06 12:19:46;;;;;;;6.55;3.45;;;30.50;34.40;;;;;;4989198;28;20031;-46
2022/08/06 12:22:14;;;;;;;5.30;2.88;;;30.50;34.60;;;;;;4991352;28;20058;-46
2022/08/06 12:24:42;;;;;;;6.90;3.08;;;30.00;33.00;;;;;;4983874;28;20166;-51
2022/08/06 12:27:10;;;;;;;5.03;3.13;;;29.50;34.40;;;;;;4990034;28;20030;-50
2022/08/06 12:29:37;;;;;;;6.13;3.45;;;28.70;35.70;;;;;;4987699;28;20046;-48
2022/08/06 12:32:30;;;;;;;4.50;3.03;;;28.10;36.90;;;;;;4987583;28;20035;-47
2022/08/06 12:35:02;;;;;;;6.43;3.67;;;28.20;36.60;;;;;;4986188;28;20097;-50
2022/08/06 12:37:39;;;;;;;5.40;3.50;;;28.70;36.30;;;;;;4987660;28;20020;-45
2022/08/06 12:40:29;;;;;;;5.57;3.58;;;29.10;36.20;;;;;;4988927;28;20061;-50
2022/08/06 12:43:09;;;;;;;5.57;3.20;;;29.30;35.00;;;;;;4986874;28;20026;-46
2022/08/06 12:45:35;;;;;;;5.03;3.30;;;29.10;33.80;;;;;;4987162;28;20039;-49
2022/08/06 12:48:10;;;;;;;5.47;3.45;;;29.20;35.70;;;;;;4980704;28;20026;-49
2022/08/06 12:50:41;;;;;;;5.18;3.40;;;28.70;34.80;;;;;;4985572;28;20030;-45
2022/08/06 12:53:13;;;;;;;5.65;3.47;;;28.90;36.00;;;;;;4979536;28;20022;-45
2022/08/06 12:55:46;;;;;;;4.78;3.25;;;29.20;35.10;;;;;;4977700;28;20062;-46
2022/08/06 12:58:23;;;;;;;5.53;3.55;;;29.30;35.30;;;;;;4982404;28;20040;-44
2022/08/06 13:00:53;;;;;;;5.60;3.60;;;29.60;35.80;;;;;;4976085;28;20041;-46
2022/08/06 13:03:22;;;;;;;5.15;3.65;;;29.60;34.20;;;;;;4977082;28;20031;-52
2022/08/06 13:05:48;;;;;;;;;;;29.50;33.90;;;;;;4981199;28;20030;-47
2022/08/06 13:08:14;;;;;;;5.00;3.58;;;29.50;34.70;;;;;;4987354;28;19914;-46